sensor_id;sensor_type;location;lat;lon;timestamp;P1;durP1;ratioP1;P2;durP2;ratioP2
9100;SDS011;4586;52.518;13.486;2022-12-22T00:02:50;6.07;;;4.07;;
9100;SDS011;4586;52.518;13.486;2022-12-22T00:06:51;4.83;;;3.50;;
9100;SDS011;4586;52.518;13.486;2022-12-22T00:10:53;5.13;;;4.17;;
9100;SDS011;4586;52.518;13.486;2022-12-22T00:14:54;5.07;;;4.10;;
9100;SDS011;4586;52.518;13.486;2022-12-22T00:18:55;4.03;;;3.47;;
9100;SDS011;4586;52.518;13.486;2022-12-22T00:22:56;5.07;;;3.77;;
9100;SDS011;4586;52.518;13.486;2022-12-22T00:26:57;6.00;;;3.53;;
9100;SDS011;4586;52.518;13.486;2022-12-22T00:30:58;5.80;;;3.83;;
9100;SDS011;4586;52.518;13.486;2022-12-22T00:34:59;5.67;;;4.10;;
9100;SDS011;4586;52.518;13.486;2022-12-22T00:39:01;5.20;;;4.13;;
9100;SDS011;4586;52.518;13.486;2022-12-22T00:43:02;4.70;;;3.90;;
9100;SDS011;4586;52.518;13.486;2022-12-22T00:47:03;5.13;;;3.90;;
9100;SDS011;4586;52.518;13.486;2022-12-22T00:51:04;6.20;;;3.60;;
9100;SDS011;4586;52.518;13.486;2022-12-22T00:55:15;4.43;;;3.50;;
9100;SDS011;4586;52.518;13.486;2022-12-22T00:59:17;4.47;;;3.20;;
9100;SDS011;4586;52.518;13.486;2022-12-22T01:03:18;4.30;;;3.60;;
9100;SDS011;4586;52.518;13.486;2022-12-22T01:07:19;4.90;;;3.40;;
9100;SDS011;4586;52.518;13.486;2022-12-22T01:11:21;5.57;;;3.50;;
9100;SDS011;4586;52.518;13.486;2022-12-22T01:15:22;4.00;;;3.23;;
9100;SDS011;4586;52.518;13.486;2022-12-22T01:19:24;6.33;;;4.17;;
9100;SDS011;4586;52.518;13.486;2022-12-22T01:23:25;4.97;;;3.73;;
9100;SDS011;4586;52.518;13.486;2022-12-22T01:27:27;6.07;;;3.70;;
9100;SDS011;4586;52.518;13.486;2022-12-22T01:31:31;6.13;;;4.13;;
9100;SDS011;4586;52.518;13.486;2022-12-22T01:35:33;5.43;;;3.67;;
9100;SDS011;4586;52.518;13.486;2022-12-22T01:39:34;7.37;;;4.00;;
9100;SDS011;4586;52.518;13.486;2022-12-22T01:43:35;4.90;;;3.63;;
9100;SDS011;4586;52.518;13.486;2022-12-22T01:47:36;6.53;;;3.87;;
9100;SDS011;4586;52.518;13.486;2022-12-22T01:51:37;4.17;;;3.30;;
9100;SDS011;4586;52.518;13.486;2022-12-22T01:55:38;4.73;;;3.73;;
9100;SDS011;4586;52.518;13.486;2022-12-22T01:59:39;5.33;;;3.27;;
9100;SDS011;4586;52.518;13.486;2022-12-22T02:03:40;5.73;;;3.67;;
9100;SDS011;4586;52.518;13.486;2022-12-22T02:15:56;4.53;;;3.60;;
9100;SDS011;4586;52.518;13.486;2022-12-22T02:20:14;4.50;;;3.47;;
9100;SDS011;4586;52.518;13.486;2022-12-22T02:28:20;5.23;;;3.40;;
9100;SDS011;4586;52.518;13.486;2022-12-22T02:32:22;5.00;;;3.50;;
9100;SDS011;4586;52.518;13.486;2022-12-22T02:36:28;3.83;;;3.33;;
9100;SDS011;4586;52.518;13.486;2022-12-22T02:48:40;6.47;;;2.97;;
9100;SDS011;4586;52.518;13.486;2022-12-22T02:52:42;5.93;;;3.40;;
9100;SDS011;4586;52.518;13.486;2022-12-22T02:56:45;4.93;;;3.03;;
9100;SDS011;4586;52.518;13.486;2022-12-22T03:00:46;3.90;;;3.50;;
9100;SDS011;4586;52.518;13.486;2022-12-22T03:04:47;4.67;;;3.30;;
9100;SDS011;4586;52.518;13.486;2022-12-22T03:08:48;4.33;;;3.07;;
9100;SDS011;4586;52.518;13.486;2022-12-22T03:12:49;4.63;;;3.63;;
9100;SDS011;4586;52.518;13.486;2022-12-22T03:16:50;3.40;;;2.97;;
9100;SDS011;4586;52.518;13.486;2022-12-22T03:20:51;4.77;;;3.30;;
9100;SDS011;4586;52.518;13.486;2022-12-22T03:24:52;4.33;;;3.00;;
9100;SDS011;4586;52.518;13.486;2022-12-22T03:28:54;5.20;;;3.40;;
9100;SDS011;4586;52.518;13.486;2022-12-22T03:32:55;6.00;;;3.47;;
9100;SDS011;4586;52.518;13.486;2022-12-22T03:36:56;4.20;;;2.93;;
9100;SDS011;4586;52.518;13.486;2022-12-22T03:40:57;4.27;;;3.33;;
9100;SDS011;4586;52.518;13.486;2022-12-22T03:44:58;5.47;;;3.10;;
9100;SDS011;4586;52.518;13.486;2022-12-22T03:49:00;3.70;;;3.00;;
9100;SDS011;4586;52.518;13.486;2022-12-22T03:53:01;3.93;;;3.07;;
9100;SDS011;4586;52.518;13.486;2022-12-22T03:57:02;4.10;;;3.00;;
9100;SDS011;4586;52.518;13.486;2022-12-22T04:01:04;3.90;;;2.67;;
9100;SDS011;4586;52.518;13.486;2022-12-22T04:05:05;5.13;;;3.13;;
9100;SDS011;4586;52.518;13.486;2022-12-22T04:09:07;4.67;;;3.07;;
9100;SDS011;4586;52.518;13.486;2022-12-22T04:13:08;4.13;;;3.00;;
9100;SDS011;4586;52.518;13.486;2022-12-22T04:17:09;3.73;;;2.80;;
9100;SDS011;4586;52.518;13.486;2022-12-22T04:21:10;4.10;;;3.37;;
9100;SDS011;4586;52.518;13.486;2022-12-22T04:25:11;3.77;;;2.90;;
9100;SDS011;4586;52.518;13.486;2022-12-22T04:29:12;4.77;;;3.30;;
9100;SDS011;4586;52.518;13.486;2022-12-22T04:33:13;4.40;;;3.37;;
9100;SDS011;4586;52.518;13.486;2022-12-22T04:37:14;4.70;;;3.23;;
9100;SDS011;4586;52.518;13.486;2022-12-22T04:41:15;5.57;;;3.00;;
9100;SDS011;4586;52.518;13.486;2022-12-22T04:45:16;5.33;;;3.50;;
9100;SDS011;4586;52.518;13.486;2022-12-22T04:49:17;4.13;;;3.20;;
9100;SDS011;4586;52.518;13.486;2022-12-22T04:53:19;5.23;;;3.43;;
9100;SDS011;4586;52.518;13.486;2022-12-22T04:57:20;6.47;;;3.70;;
9100;SDS011;4586;52.518;13.486;2022-12-22T05:01:21;4.53;;;3.50;;
9100;SDS011;4586;52.518;13.486;2022-12-22T05:05:22;5.43;;;3.80;;
9100;SDS011;4586;52.518;13.486;2022-12-22T05:09:23;5.00;;;3.93;;
9100;SDS011;4586;52.518;13.486;2022-12-22T05:13:24;5.37;;;3.43;;
9100;SDS011;4586;52.518;13.486;2022-12-22T05:17:25;5.77;;;4.27;;
9100;SDS011;4586;52.518;13.486;2022-12-22T05:21:26;6.13;;;3.93;;
9100;SDS011;4586;52.518;13.486;2022-12-22T05:25:27;5.27;;;4.00;;
9100;SDS011;4586;52.518;13.486;2022-12-22T05:29:28;7.23;;;4.00;;
9100;SDS011;4586;52.518;13.486;2022-12-22T05:33:29;6.07;;;4.57;;
9100;SDS011;4586;52.518;13.486;2022-12-22T05:37:30;5.47;;;4.00;;
9100;SDS011;4586;52.518;13.486;2022-12-22T05:41:31;4.73;;;4.00;;
9100;SDS011;4586;52.518;13.486;2022-12-22T05:45:32;6.17;;;4.30;;
9100;SDS011;4586;52.518;13.486;2022-12-22T05:49:33;6.60;;;4.60;;
9100;SDS011;4586;52.518;13.486;2022-12-22T05:53:34;8.63;;;4.50;;
9100;SDS011;4586;52.518;13.486;2022-12-22T05:57:35;5.90;;;4.40;;
9100;SDS011;4586;52.518;13.486;2022-12-22T06:01:37;6.10;;;4.47;;
9100;SDS011;4586;52.518;13.486;2022-12-22T06:05:38;4.80;;;3.83;;
9100;SDS011;4586;52.518;13.486;2022-12-22T06:09:39;7.10;;;4.47;;
9100;SDS011;4586;52.518;13.486;2022-12-22T06:13:40;5.87;;;3.73;;
9100;SDS011;4586;52.518;13.486;2022-12-22T06:17:41;8.53;;;4.50;;
9100;SDS011;4586;52.518;13.486;2022-12-22T06:21:42;7.93;;;5.30;;
9100;SDS011;4586;52.518;13.486;2022-12-22T06:25:52;6.67;;;4.77;;
9100;SDS011;4586;52.518;13.486;2022-12-22T06:29:53;6.50;;;4.37;;
9100;SDS011;4586;52.518;13.486;2022-12-22T06:33:54;9.70;;;5.87;;
9100;SDS011;4586;52.518;13.486;2022-12-22T06:37:55;7.17;;;4.93;;
9100;SDS011;4586;52.518;13.486;2022-12-22T06:41:56;8.43;;;5.07;;
9100;SDS011;4586;52.518;13.486;2022-12-22T06:45:57;7.13;;;5.03;;
9100;SDS011;4586;52.518;13.486;2022-12-22T06:49:58;7.90;;;5.27;;
9100;SDS011;4586;52.518;13.486;2022-12-22T06:53:59;10.87;;;6.03;;
9100;SDS011;4586;52.518;13.486;2022-12-22T06:58:00;12.00;;;7.67;;
9100;SDS011;4586;52.518;13.486;2022-12-22T07:02:01;9.90;;;6.40;;
9100;SDS011;4586;52.518;13.486;2022-12-22T07:06:02;6.77;;;5.17;;
9100;SDS011;4586;52.518;13.486;2022-12-22T07:10:03;10.63;;;6.27;;
9100;SDS011;4586;52.518;13.486;2022-12-22T07:14:04;10.37;;;5.57;;
9100;SDS011;4586;52.518;13.486;2022-12-22T07:18:05;20.63;;;11.00;;
9100;SDS011;4586;52.518;13.486;2022-12-22T07:22:06;13.03;;;9.57;;
9100;SDS011;4586;52.518;13.486;2022-12-22T07:26:08;19.67;;;10.97;;
9100;SDS011;4586;52.518;13.486;2022-12-22T07:30:09;14.27;;;8.73;;
9100;SDS011;4586;52.518;13.486;2022-12-22T07:34:10;15.17;;;9.50;;
9100;SDS011;4586;52.518;13.486;2022-12-22T07:38:11;6.77;;;4.77;;
9100;SDS011;4586;52.518;13.486;2022-12-22T07:42:12;6.67;;;5.07;;
9100;SDS011;4586;52.518;13.486;2022-12-22T07:46:13;5.60;;;4.50;;
9100;SDS011;4586;52.518;13.486;2022-12-22T07:50:16;6.33;;;4.90;;
9100;SDS011;4586;52.518;13.486;2022-12-22T07:54:17;6.50;;;4.27;;
9100;SDS011;4586;52.518;13.486;2022-12-22T07:58:18;5.20;;;4.30;;
9100;SDS011;4586;52.518;13.486;2022-12-22T08:02:19;9.00;;;5.00;;
9100;SDS011;4586;52.518;13.486;2022-12-22T08:06:20;8.87;;;4.80;;
9100;SDS011;4586;52.518;13.486;2022-12-22T08:10:21;7.97;;;4.27;;
9100;SDS011;4586;52.518;13.486;2022-12-22T08:14:22;5.97;;;4.37;;
9100;SDS011;4586;52.518;13.486;2022-12-22T08:18:23;7.23;;;4.53;;
9100;SDS011;4586;52.518;13.486;2022-12-22T08:22:24;4.53;;;3.97;;
9100;SDS011;4586;52.518;13.486;2022-12-22T08:26:27;6.00;;;4.30;;
9100;SDS011;4586;52.518;13.486;2022-12-22T08:30:30;8.23;;;4.37;;
9100;SDS011;4586;52.518;13.486;2022-12-22T08:34:32;8.47;;;4.40;;
9100;SDS011;4586;52.518;13.486;2022-12-22T08:38:33;8.33;;;4.90;;
9100;SDS011;4586;52.518;13.486;2022-12-22T08:42:35;6.03;;;4.00;;
9100;SDS011;4586;52.518;13.486;2022-12-22T08:46:36;7.23;;;3.97;;
9100;SDS011;4586;52.518;13.486;2022-12-22T08:50:37;8.43;;;5.53;;
9100;SDS011;4586;52.518;13.486;2022-12-22T08:54:38;6.37;;;4.13;;
9100;SDS011;4586;52.518;13.486;2022-12-22T08:58:39;8.20;;;4.93;;
9100;SDS011;4586;52.518;13.486;2022-12-22T09:02:40;5.70;;;3.80;;
9100;SDS011;4586;52.518;13.486;2022-12-22T09:06:41;6.17;;;4.37;;
9100;SDS011;4586;52.518;13.486;2022-12-22T09:10:42;5.50;;;3.73;;
9100;SDS011;4586;52.518;13.486;2022-12-22T09:14:43;6.20;;;3.83;;
9100;SDS011;4586;52.518;13.486;2022-12-22T09:18:44;6.30;;;4.10;;
9100;SDS011;4586;52.518;13.486;2022-12-22T09:22:45;5.63;;;3.53;;
9100;SDS011;4586;52.518;13.486;2022-12-22T09:26:46;6.23;;;3.93;;
9100;SDS011;4586;52.518;13.486;2022-12-22T09:30:48;5.73;;;3.87;;
9100;SDS011;4586;52.518;13.486;2022-12-22T09:34:49;6.90;;;4.60;;
9100;SDS011;4586;52.518;13.486;2022-12-22T09:38:50;5.23;;;3.80;;
9100;SDS011;4586;52.518;13.486;2022-12-22T09:42:51;5.33;;;3.70;;
9100;SDS011;4586;52.518;13.486;2022-12-22T09:46:53;6.07;;;4.13;;
9100;SDS011;4586;52.518;13.486;2022-12-22T09:50:55;8.40;;;4.10;;
9100;SDS011;4586;52.518;13.486;2022-12-22T09:54:56;4.47;;;3.43;;
9100;SDS011;4586;52.518;13.486;2022-12-22T09:58:58;6.33;;;4.50;;
9100;SDS011;4586;52.518;13.486;2022-12-22T10:07:34;5.37;;;4.00;;
9100;SDS011;4586;52.518;13.486;2022-12-22T10:11:36;6.70;;;4.30;;
9100;SDS011;4586;52.518;13.486;2022-12-22T10:15:38;4.23;;;3.40;;
9100;SDS011;4586;52.518;13.486;2022-12-22T10:19:40;6.87;;;4.00;;
9100;SDS011;4586;52.518;13.486;2022-12-22T10:23:45;5.43;;;3.53;;
9100;SDS011;4586;52.518;13.486;2022-12-22T10:27:46;5.83;;;3.87;;
9100;SDS011;4586;52.518;13.486;2022-12-22T10:31:55;4.93;;;3.30;;
9100;SDS011;4586;52.518;13.486;2022-12-22T10:35:57;6.80;;;4.00;;
9100;SDS011;4586;52.518;13.486;2022-12-22T10:39:58;5.07;;;3.43;;
9100;SDS011;4586;52.518;13.486;2022-12-22T10:44:00;4.67;;;3.77;;
9100;SDS011;4586;52.518;13.486;2022-12-22T10:48:02;3.87;;;3.20;;
9100;SDS011;4586;52.518;13.486;2022-12-22T10:56:32;6.40;;;3.83;;
9100;SDS011;4586;52.518;13.486;2022-12-22T11:00:33;7.50;;;4.40;;
9100;SDS011;4586;52.518;13.486;2022-12-22T11:04:34;7.17;;;4.87;;
9100;SDS011;4586;52.518;13.486;2022-12-22T11:08:35;5.37;;;3.87;;
9100;SDS011;4586;52.518;13.486;2022-12-22T11:12:39;3.97;;;3.13;;
9100;SDS011;4586;52.518;13.486;2022-12-22T11:16:45;7.63;;;4.87;;
9100;SDS011;4586;52.518;13.486;2022-12-22T11:37:37;5.93;;;3.47;;
9100;SDS011;4586;52.518;13.486;2022-12-22T11:41:58;4.50;;;3.20;;
9100;SDS011;4586;52.518;13.486;2022-12-22T12:07:23;5.30;;;3.67;;
9100;SDS011;4586;52.518;13.486;2022-12-22T12:11:35;6.67;;;3.60;;
9100;SDS011;4586;52.518;13.486;2022-12-22T12:23:54;3.70;;;2.77;;
9100;SDS011;4586;52.518;13.486;2022-12-22T12:32:23;4.20;;;3.10;;
9100;SDS011;4586;52.518;13.486;2022-12-22T12:40:44;4.87;;;2.67;;
9100;SDS011;4586;52.518;13.486;2022-12-22T12:44:47;4.53;;;3.23;;
9100;SDS011;4586;52.518;13.486;2022-12-22T12:48:48;3.27;;;2.80;;
9100;SDS011;4586;52.518;13.486;2022-12-22T12:57:09;4.50;;;3.30;;
9100;SDS011;4586;52.518;13.486;2022-12-22T13:01:12;5.53;;;3.73;;
9100;SDS011;4586;52.518;13.486;2022-12-22T13:10:05;3.73;;;2.50;;
9100;SDS011;4586;52.518;13.486;2022-12-22T13:14:06;2.90;;;2.53;;
9100;SDS011;4586;52.518;13.486;2022-12-22T13:22:26;3.73;;;2.90;;
9100;SDS011;4586;52.518;13.486;2022-12-22T13:26:34;4.30;;;3.20;;
9100;SDS011;4586;52.518;13.486;2022-12-22T13:30:36;13.67;;;6.77;;
9100;SDS011;4586;52.518;13.486;2022-12-22T13:38:38;3.83;;;3.10;;
9100;SDS011;4586;52.518;13.486;2022-12-22T13:42:40;6.47;;;3.33;;
9100;SDS011;4586;52.518;13.486;2022-12-22T13:46:41;6.67;;;3.37;;
9100;SDS011;4586;52.518;13.486;2022-12-22T13:50:47;3.70;;;3.07;;
9100;SDS011;4586;52.518;13.486;2022-12-22T13:54:48;4.70;;;2.97;;
9100;SDS011;4586;52.518;13.486;2022-12-22T13:58:50;3.63;;;2.80;;
9100;SDS011;4586;52.518;13.486;2022-12-22T14:02:52;3.83;;;2.70;;
9100;SDS011;4586;52.518;13.486;2022-12-22T14:06:53;4.03;;;3.63;;
9100;SDS011;4586;52.518;13.486;2022-12-22T14:10:55;3.10;;;2.13;;
9100;SDS011;4586;52.518;13.486;2022-12-22T14:14:56;3.70;;;2.67;;
9100;SDS011;4586;52.518;13.486;2022-12-22T14:18:58;2.70;;;2.20;;
9100;SDS011;4586;52.518;13.486;2022-12-22T14:27:36;2.73;;;2.00;;
9100;SDS011;4586;52.518;13.486;2022-12-22T14:31:51;3.07;;;1.50;;
9100;SDS011;4586;52.518;13.486;2022-12-22T14:44:32;5.63;;;2.13;;
9100;SDS011;4586;52.518;13.486;2022-12-22T14:48:35;3.07;;;2.20;;
9100;SDS011;4586;52.518;13.486;2022-12-22T14:52:44;2.30;;;1.90;;
9100;SDS011;4586;52.518;13.486;2022-12-22T14:56:46;10.13;;;4.40;;
9100;SDS011;4586;52.518;13.486;2022-12-22T15:01:10;4.33;;;2.63;;
9100;SDS011;4586;52.518;13.486;2022-12-22T15:05:13;6.80;;;2.93;;
9100;SDS011;4586;52.518;13.486;2022-12-22T15:13:18;1.70;;;1.53;;
9100;SDS011;4586;52.518;13.486;2022-12-22T15:17:22;1.53;;;1.40;;
9100;SDS011;4586;52.518;13.486;2022-12-22T15:21:24;2.47;;;1.30;;
9100;SDS011;4586;52.518;13.486;2022-12-22T15:25:25;1.40;;;1.30;;
9100;SDS011;4586;52.518;13.486;2022-12-22T15:29:26;9.77;;;3.13;;
9100;SDS011;4586;52.518;13.486;2022-12-22T15:33:27;5.30;;;3.03;;
9100;SDS011;4586;52.518;13.486;2022-12-22T15:37:29;3.07;;;1.90;;
9100;SDS011;4586;52.518;13.486;2022-12-22T15:41:30;1.93;;;1.43;;
9100;SDS011;4586;52.518;13.486;2022-12-22T15:45:31;1.97;;;1.77;;
9100;SDS011;4586;52.518;13.486;2022-12-22T15:49:32;1.33;;;1.23;;
9100;SDS011;4586;52.518;13.486;2022-12-22T15:53:33;1.57;;;1.47;;
9100;SDS011;4586;52.518;13.486;2022-12-22T15:57:35;1.90;;;1.60;;
9100;SDS011;4586;52.518;13.486;2022-12-22T16:01:36;2.07;;;1.63;;
9100;SDS011;4586;52.518;13.486;2022-12-22T16:05:37;2.43;;;2.10;;
9100;SDS011;4586;52.518;13.486;2022-12-22T16:09:39;3.03;;;1.77;;
9100;SDS011;4586;52.518;13.486;2022-12-22T16:13:40;2.30;;;1.37;;
9100;SDS011;4586;52.518;13.486;2022-12-22T16:17:41;2.43;;;1.60;;
9100;SDS011;4586;52.518;13.486;2022-12-22T16:21:43;3.63;;;2.27;;
9100;SDS011;4586;52.518;13.486;2022-12-22T16:25:45;4.73;;;2.40;;
9100;SDS011;4586;52.518;13.486;2022-12-22T16:29:48;2.67;;;1.93;;
9100;SDS011;4586;52.518;13.486;2022-12-22T16:33:51;1.97;;;1.67;;
9100;SDS011;4586;52.518;13.486;2022-12-22T16:37:54;4.00;;;2.77;;
9100;SDS011;4586;52.518;13.486;2022-12-22T16:41:55;4.97;;;2.77;;
9100;SDS011;4586;52.518;13.486;2022-12-22T16:45:56;3.57;;;2.57;;
9100;SDS011;4586;52.518;13.486;2022-12-22T16:49:58;4.87;;;2.97;;
9100;SDS011;4586;52.518;13.486;2022-12-22T16:54:00;4.07;;;2.93;;
9100;SDS011;4586;52.518;13.486;2022-12-22T16:58:01;4.43;;;2.93;;
9100;SDS011;4586;52.518;13.486;2022-12-22T17:02:02;5.67;;;3.90;;
9100;SDS011;4586;52.518;13.486;2022-12-22T17:06:03;5.33;;;3.33;;
9100;SDS011;4586;52.518;13.486;2022-12-22T17:10:04;4.47;;;2.90;;
9100;SDS011;4586;52.518;13.486;2022-12-22T17:14:51;7.77;;;3.70;;
9100;SDS011;4586;52.518;13.486;2022-12-22T17:18:27;8.20;;;4.67;;
9100;SDS011;4586;52.518;13.486;2022-12-22T17:22:29;4.73;;;3.57;;
9100;SDS011;4586;52.518;13.486;2022-12-22T17:26:31;5.73;;;3.67;;
9100;SDS011;4586;52.518;13.486;2022-12-22T17:30:32;6.80;;;4.07;;
9100;SDS011;4586;52.518;13.486;2022-12-22T17:34:33;5.17;;;3.60;;
9100;SDS011;4586;52.518;13.486;2022-12-22T17:38:34;4.23;;;3.20;;
9100;SDS011;4586;52.518;13.486;2022-12-22T17:42:35;6.80;;;4.37;;
9100;SDS011;4586;52.518;13.486;2022-12-22T17:46:36;4.60;;;2.90;;
9100;SDS011;4586;52.518;13.486;2022-12-22T17:50:37;3.63;;;2.53;;
9100;SDS011;4586;52.518;13.486;2022-12-22T17:54:39;4.80;;;3.30;;
9100;SDS011;4586;52.518;13.486;2022-12-22T17:58:40;5.60;;;3.47;;
9100;SDS011;4586;52.518;13.486;2022-12-22T18:02:41;5.53;;;4.20;;
9100;SDS011;4586;52.518;13.486;2022-12-22T18:06:42;7.07;;;4.90;;
9100;SDS011;4586;52.518;13.486;2022-12-22T18:10:43;5.37;;;2.97;;
9100;SDS011;4586;52.518;13.486;2022-12-22T18:14:45;6.57;;;4.50;;
9100;SDS011;4586;52.518;13.486;2022-12-22T18:18:46;6.67;;;4.60;;
9100;SDS011;4586;52.518;13.486;2022-12-22T18:22:51;6.40;;;4.73;;
9100;SDS011;4586;52.518;13.486;2022-12-22T18:26:53;6.60;;;4.63;;
9100;SDS011;4586;52.518;13.486;2022-12-22T18:30:54;7.50;;;5.13;;
9100;SDS011;4586;52.518;13.486;2022-12-22T18:34:55;5.47;;;3.97;;
9100;SDS011;4586;52.518;13.486;2022-12-22T18:38:56;7.80;;;4.53;;
9100;SDS011;4586;52.518;13.486;2022-12-22T18:42:58;10.63;;;5.60;;
9100;SDS011;4586;52.518;13.486;2022-12-22T18:46:59;7.53;;;4.67;;
9100;SDS011;4586;52.518;13.486;2022-12-22T18:51:00;7.00;;;4.13;;
9100;SDS011;4586;52.518;13.486;2022-12-22T18:55:01;6.77;;;5.07;;
9100;SDS011;4586;52.518;13.486;2022-12-22T18:59:07;4.87;;;3.17;;
9100;SDS011;4586;52.518;13.486;2022-12-22T19:03:19;6.13;;;3.90;;
9100;SDS011;4586;52.518;13.486;2022-12-22T19:07:21;6.30;;;4.07;;
9100;SDS011;4586;52.518;13.486;2022-12-22T19:11:23;5.60;;;3.87;;
9100;SDS011;4586;52.518;13.486;2022-12-22T19:15:28;8.43;;;4.33;;
9100;SDS011;4586;52.518;13.486;2022-12-22T19:19:29;7.67;;;4.30;;
9100;SDS011;4586;52.518;13.486;2022-12-22T19:23:30;7.20;;;4.60;;
9100;SDS011;4586;52.518;13.486;2022-12-22T19:27:31;5.93;;;3.73;;
9100;SDS011;4586;52.518;13.486;2022-12-22T19:31:33;12.33;;;5.20;;
9100;SDS011;4586;52.518;13.486;2022-12-22T19:35:34;7.53;;;4.57;;
9100;SDS011;4586;52.518;13.486;2022-12-22T19:39:35;8.73;;;6.33;;
9100;SDS011;4586;52.518;13.486;2022-12-22T19:43:36;9.53;;;5.20;;
9100;SDS011;4586;52.518;13.486;2022-12-22T19:47:37;11.30;;;5.47;;
9100;SDS011;4586;52.518;13.486;2022-12-22T19:51:38;10.27;;;5.87;;
9100;SDS011;4586;52.518;13.486;2022-12-22T19:55:44;8.93;;;5.93;;
9100;SDS011;4586;52.518;13.486;2022-12-22T19:59:46;13.73;;;8.07;;
9100;SDS011;4586;52.518;13.486;2022-12-22T20:03:48;10.57;;;6.20;;
9100;SDS011;4586;52.518;13.486;2022-12-22T20:07:49;9.93;;;5.53;;
9100;SDS011;4586;52.518;13.486;2022-12-22T20:11:50;15.93;;;8.00;;
9100;SDS011;4586;52.518;13.486;2022-12-22T20:15:51;8.33;;;5.07;;
9100;SDS011;4586;52.518;13.486;2022-12-22T20:19:52;13.87;;;7.10;;
9100;SDS011;4586;52.518;13.486;2022-12-22T20:23:53;9.43;;;6.43;;
9100;SDS011;4586;52.518;13.486;2022-12-22T20:27:56;14.17;;;8.20;;
9100;SDS011;4586;52.518;13.486;2022-12-22T20:31:57;12.93;;;5.90;;
9100;SDS011;4586;52.518;13.486;2022-12-22T20:35:59;10.93;;;6.00;;
9100;SDS011;4586;52.518;13.486;2022-12-22T20:40:00;10.10;;;5.93;;
9100;SDS011;4586;52.518;13.486;2022-12-22T20:44:01;8.73;;;5.43;;
9100;SDS011;4586;52.518;13.486;2022-12-22T20:48:02;8.53;;;5.40;;
9100;SDS011;4586;52.518;13.486;2022-12-22T20:52:03;11.90;;;7.13;;
9100;SDS011;4586;52.518;13.486;2022-12-22T20:56:09;14.23;;;6.83;;
9100;SDS011;4586;52.518;13.486;2022-12-22T21:00:25;13.53;;;5.80;;
9100;SDS011;4586;52.518;13.486;2022-12-22T21:04:26;6.87;;;5.20;;
9100;SDS011;4586;52.518;13.486;2022-12-22T21:08:27;18.13;;;10.47;;
9100;SDS011;4586;52.518;13.486;2022-12-22T21:12:28;9.83;;;6.23;;
9100;SDS011;4586;52.518;13.486;2022-12-22T21:16:30;10.63;;;7.00;;
9100;SDS011;4586;52.518;13.486;2022-12-22T21:20:31;13.67;;;6.93;;
9100;SDS011;4586;52.518;13.486;2022-12-22T21:24:32;18.10;;;8.30;;
9100;SDS011;4586;52.518;13.486;2022-12-22T21:28:34;16.33;;;7.97;;
9100;SDS011;4586;52.518;13.486;2022-12-22T21:32:35;10.93;;;6.53;;
9100;SDS011;4586;52.518;13.486;2022-12-22T21:36:36;13.03;;;7.80;;
9100;SDS011;4586;52.518;13.486;2022-12-22T21:40:38;10.33;;;6.10;;
9100;SDS011;4586;52.518;13.486;2022-12-22T21:44:39;9.43;;;6.07;;
9100;SDS011;4586;52.518;13.486;2022-12-22T21:48:40;14.40;;;7.00;;
9100;SDS011;4586;52.518;13.486;2022-12-22T21:52:41;11.10;;;6.13;;
9100;SDS011;4586;52.518;13.486;2022-12-22T21:56:42;11.80;;;6.40;;
9100;SDS011;4586;52.518;13.486;2022-12-22T22:00:45;11.13;;;6.80;;
9100;SDS011;4586;52.518;13.486;2022-12-22T22:04:46;10.40;;;5.77;;
9100;SDS011;4586;52.518;13.486;2022-12-22T22:08:47;13.73;;;5.97;;
9100;SDS011;4586;52.518;13.486;2022-12-22T22:12:48;10.37;;;7.10;;
9100;SDS011;4586;52.518;13.486;2022-12-22T22:16:49;14.37;;;6.27;;
9100;SDS011;4586;52.518;13.486;2022-12-22T22:20:50;9.07;;;5.47;;
9100;SDS011;4586;52.518;13.486;2022-12-22T22:24:51;9.17;;;5.87;;
9100;SDS011;4586;52.518;13.486;2022-12-22T22:28:52;10.20;;;5.23;;
9100;SDS011;4586;52.518;13.486;2022-12-22T22:32:54;13.30;;;7.37;;
9100;SDS011;4586;52.518;13.486;2022-12-22T22:36:55;9.23;;;5.67;;
9100;SDS011;4586;52.518;13.486;2022-12-22T22:40:57;11.30;;;6.10;;
9100;SDS011;4586;52.518;13.486;2022-12-22T22:44:58;7.27;;;4.70;;
9100;SDS011;4586;52.518;13.486;2022-12-22T22:48:59;8.50;;;5.87;;
9100;SDS011;4586;52.518;13.486;2022-12-22T22:53:00;9.90;;;5.60;;
9100;SDS011;4586;52.518;13.486;2022-12-22T22:57:01;11.73;;;4.90;;
9100;SDS011;4586;52.518;13.486;2022-12-22T23:01:03;9.87;;;5.10;;
9100;SDS011;4586;52.518;13.486;2022-12-22T23:05:04;8.17;;;4.83;;
9100;SDS011;4586;52.518;13.486;2022-12-22T23:09:05;8.90;;;4.60;;
9100;SDS011;4586;52.518;13.486;2022-12-22T23:13:06;8.03;;;5.57;;
9100;SDS011;4586;52.518;13.486;2022-12-22T23:17:07;7.90;;;4.90;;
9100;SDS011;4586;52.518;13.486;2022-12-22T23:21:09;8.37;;;5.10;;
9100;SDS011;4586;52.518;13.486;2022-12-22T23:25:10;7.93;;;5.50;;
9100;SDS011;4586;52.518;13.486;2022-12-22T23:29:11;9.27;;;4.83;;
9100;SDS011;4586;52.518;13.486;2022-12-22T23:33:13;10.37;;;5.23;;
9100;SDS011;4586;52.518;13.486;2022-12-22T23:37:14;10.50;;;5.73;;
9100;SDS011;4586;52.518;13.486;2022-12-22T23:41:15;10.47;;;5.30;;
9100;SDS011;4586;52.518;13.486;2022-12-22T23:45:16;8.50;;;4.90;;
9100;SDS011;4586;52.518;13.486;2022-12-22T23:49:17;12.43;;;5.63;;
9100;SDS011;4586;52.518;13.486;2022-12-22T23:53:18;9.03;;;5.13;;
9100;SDS011;4586;52.518;13.486;2022-12-22T23:57:19;7.10;;;4.40;;
